Tuesday, June 19, 2018, 6:55 AM EDT
Back to Local

KMQE, Milton Blue Hill Observ

Location: Milton, MA, United States Lat: 42.217
Local Time: 6:55 AM EDT (10:55 GMT) Lon: -71.117
Time Zone: US/Eastern Elev: 629 ft

Show me the last for .
Show Decoded

2018-06-19 05:56 METAR KMQE 190956Z AUTO 31007KT 21/21 A2968 RMK AO1 SLP056 T02110211 =
2018-06-19 04:56 METAR KMQE 190856Z AUTO 27013KT 21/21 A2965 RMK AO1 SLP046 60001 T02110211 53002
                 =
2018-06-19 03:56 METAR KMQE 190756Z AUTO 25011G20KT 21/21 A2964 RMK AO1 SLP043 P0001 T02110211 =
2018-06-19 02:56 METAR KMQE 190656Z AUTO 23011KT 22/21 A2964 RMK AO1 SLP042 T02170206 =
2018-06-19 01:56 METAR KMQE 190556Z AUTO 23016G24KT 22/21 A2964 RMK AO1 PK WND 23029/0527 SLP044
                 60008 T02170206 10228 20200 56024 =
2018-06-19 00:56 METAR KMQE 190456Z AUTO 22018G25KT 21/20 A2966 RMK AO1 SLP049 T02060200
                 403000172 =
2018-06-18 23:56 METAR KMQE 190356Z AUTO 21015G21KT 20/20 A2969 RMK AO1 SLP059 T02000200 =
2018-06-18 22:56 METAR KMQE 190256Z AUTO 21014KT 20/19 A2972 RMK AO1 PK WND 22026/0224 WSHFT 0143
                 SLP068 60008 T02000194 56025 =
2018-06-18 22:03 METAR KMQE 190203Z AUTO 21017G22KT 21/19 A2975 RMK AO1 WSHFT 0143 T02060194 =
2018-06-18 21:56 METAR KMQE 190156Z AUTO 20016G22KT 21/19 A2975 RMK AO1 SLP081 P0007 T02060194 =
2018-06-18 20:56 METAR KMQE 190056Z AUTO 20018G26KT 22/19 A2975 RMK AO1 PK WND 22026/0054 SLP079
                 P0001 T02220194 =
2018-06-18 19:56 METAR KMQE 182356Z AUTO 22011KT 23/21 A2979 RMK AO1 PK WND 22033/2300 SLP095
                 P0002 60002 T02280206 10300 20222 53006 =
2018-06-18 18:56 METAR KMQE 182256Z AUTO 21019G28KT 26/19 A2977 RMK AO1 PK WND 21032/2219 SLP085
                 T02610189 =
2018-06-18 17:56 METAR KMQE 182156Z AUTO 20016G24KT 27/19 A2975 RMK AO1 PK WND 22033/2141 SLP081
                 T02720194 =
2018-06-18 16:56 METAR KMQE 182056Z AUTO 20018G33KT 29/20 A2977 RMK AO1 PK WND 21033/2039 SLP088
                 T02890200 58027 =
2018-06-18 15:56 METAR KMQE 181956Z AUTO 19018G24KT 29/21 A2980 RMK AO1 PK WND 19028/1914 SLP098
                 T02890211 =
2018-06-18 14:56 METAR KMQE 181856Z AUTO 19017G23KT 27/21 A2984 RMK AO1 PK WND 20027/1759 SLP110
                 T02670206 =
2018-06-18 13:56 METAR KMQE 181756Z AUTO 20018G25KT 28/21 A2986 RMK AO1 PK WND 21028/1709 SLP116
                 T02780206 10283 20200 58023 =
2018-06-18 12:56 METAR KMQE 181656Z AUTO 21014G22KT 28/21 A2990 RMK AO1 SLP129 T02830206 =
2018-06-18 11:56 METAR KMQE 181556Z AUTO 20014G21KT 28/20 A2992 RMK AO1 SLP137 T02780200 =
2018-06-18 10:56 METAR KMQE 181456Z AUTO 21013G20KT 27/19 A2993 RMK AO1 SLP139 T02670194 56015 =
2018-06-18 09:56 METAR KMQE 181356Z AUTO 22015G22KT 26/18 A2994 RMK AO1 SLP144 T02560183 =
2018-06-18 08:56 METAR KMQE 181256Z AUTO 21015G20KT 23/18 A2995 RMK AO1 SLP149 T02330178 =
2018-06-18 07:56 METAR KMQE 181156Z AUTO 21013KT 20/16 A2997 RMK AO1 SLP155 T02000161 10200 20172
                 58014 =
2018-06-18 06:56 METAR KMQE 181056Z AUTO 20012KT 19/15 A2999 RMK AO1 SLP161 T01890150 =

Support USWX by starting your Amazon purchase here.